Tiempo atmosférico en la estación meteorológica de Chelva, València/Valencia (546 m.)



Fecha
DESCASC
Temp. máxima en grados centígrados (hora)
DESCASC
Temp. mínima en grados centígrados (hora)
DESCASC
Temp. media en grados centígrados
DESCASC
Racha de viento máxima en m/sg (hora)
DESCASC
Velocidad máxima media en intervalos de 10 minutos(hora)
DESCASC
Precipitaciones diarias en mm
DESCASC
Precipitaciones de 00:00 a 06:00 en mm
DESCASC
Precipitaciones de 06:00 a 12:00 en mm
DESCASC
Precipitaciones de 12:00 a 18:00 en mm
DESCASC
Precipitaciones de 18:00 a 24:00 en mm
DESCASC
23-05-2018 25.8 (14:50) 12.9 (06:40) 19.3 9.44 (16:50) 5.56 (16:50) 0 0 0 0 0
22-05-2018 25.4 (13:30) 11.3 (06:20) 18.3 11.11 (14:30) 5.83 (14:30) 5.4 0 0 5.4 0
21-05-2018 24.9 (13:10) 12.6 (07:40) 18.8 9.17 (13:20) 5.83 (13:20) 2.8 0 0 2.8 0
20-05-2018 23.7 (13:50) 13.1 (00:00) 18.4 10.28 (15:30) 5.83 (15:40) 0 0 0 0 0
19-05-2018 23.4 (15:10) 9.8 (06:00) 16.6 10.28 (14:40) 5.83 (16:00) 0 0 0 0 0
18-05-2018 23.7 (13:40) 10.9 (00:00) 17.3 12.5 (15:40) 6.94 (15:10) 0 0 0 0 0
17-05-2018 23.8 (15:20) 8.6 (00:00) 16.2 10.28 (18:40) 5.83 (17:30) 0 0 0 0 0
16-05-2018 22.7 (16:10) 9.3 (00:00) 16 10 (14:20) 6.11 (14:50) 0 0 0 0 0
15-05-2018 23.8 (17:00) 8.1 (00:00) 15.9 9.17 (17:50) 5.28 (18:20) 0 0 0 0 0
14-05-2018 22.1 (16:40) 8.9 (00:00) 15.5 11.39 (15:30) 5.56 (17:10) 0 0 0 0 0
13-05-2018 22.1 (18:40) 7.5 (00:00) 14.8 14.44 (11:10) 6.39 (10:50) 0 0 0 0 0
12-05-2018 25.1 (16:40) 12 (00:00) 18.6 14.44 (23:30) 7.78 (23:30) 0 0 0 0 0
11-05-2018 27.6 (17:50) 9.3 (07:10) 18.5 7.78 (16:00) 4.44 (19:50) 0 0 0 0 0
10-05-2018 23.3 (13:20) 12.5 (00:00) 17.9 10.28 (15:40) 6.39 (15:10) 0 0 0 0 0
09-05-2018 26.8 (13:40) 10.9 (00:00) 18.8 9.72 (15:10) 5.83 (15:20) 0 0 0 0 0
08-05-2018 23.9 (13:30) 13.3 (00:00) 18.6 12.5 (13:50) 6.39 (13:50) 9.2 0 0 9 0.2
07-05-2018 24.1 (15:00) 8.9 (00:00) 16.5 10 (16:50) 5.56 (16:50) 0.2 0 0.2 0 0
06-05-2018 22.3 (14:10) 8.5 (06:40) 15.4 10 (16:00) 5.28 (15:10) 0.2 0 0 0 0.2
05-05-2018 23.6 (13:10) 11.6 (00:00) 17.6 8.33 (15:20) 4.44 (15:00) 0 0 0 0 0
04-05-2018 19.8 (16:10) 8.4 (00:00) 14.1 9.44 (08:30) 5.28 (07:40) 0.2 0 0 0 0.2
03-05-2018 21.8 (15:50) 12.7 (00:00) 17.2 13.89 (11:50) 7.5 (11:50) 0 0 0 0 0
02-05-2018 20.6 (18:00) 4.7 (00:00) 12.7 11.67 (15:10) 5.56 (16:00) 0 0 0 0 0
01-05-2018 18.2 (16:50) 5.6 (06:30) 11.9 7.78 (15:40) 4.72 (04:50) 0 0 0 0 0
30-04-2018 16.8 (15:50) 5.7 (00:00) 11.2 10.56 (16:00) 5.83 (11:50) 0 0 0 0 0
29-04-2018 15.3 (17:50) 9.2 (00:00) 12.3 20 (18:50) 10.28 (18:50) 4.2 2.8 0 0.8 0.6
28-04-2018 25.2 (15:00) 8.8 (00:00) 17 10.83 (14:50) 6.39 (15:50) 0.8 0 0 0 0.8
27-04-2018 28.5 (16:10) 12.7 (00:00) 20.6 10 (15:30) 6.11 (17:50) 0 0 0 0 0
26-04-2018 23.6 (16:40) 10.5 (00:00) 17.1 8.89 (17:30) 4.72 (17:00) 0 0 0 0 0
25-04-2018 24.7 (15:00) 9.2 (00:00) 17 11.67 (15:50) 7.22 (15:50) 0 0 0 0 0
24-04-2018 23.9 (16:20) 10.2 (00:00) 17 9.72 (15:10) 5.83 (15:20) 0 0 0 0 0

Gráficas

Temp. máximas Temp. mínimas Temp. medias Precipitaciones Rachas de viento máximas Velocidades máximas media en intervalos de 10 minutos

Datos horarios

Fecha y hora oficial Temperatura (ºC) Velocidad del viento (km/h) Dirección del viento Racha (km/h) Dirección de racha Precipitación (mm) Presión (hPa) Tendencia (hPa) Humedad (%)
2018-05-23 23:00:00 17.1 8 Sudeste 15 Sudeste 0 -- -- 60
2018-05-23 22:00:00 17.9 5 Sudeste 16 Sudeste 0 -- -- 59
2018-05-23 21:00:00 19.2 12 Sudeste 25 Sudeste 0 -- -- 52
2018-05-23 20:00:00 20.7 14 Sudeste 31 Sudeste 0 -- -- 52
2018-05-23 19:00:00 21.8 16 Sudeste 31 Sudeste 0 -- -- 54
2018-05-23 18:00:00 23.5 16 Sudeste 32 Este 0 -- -- 50
2018-05-23 17:00:00 24.8 18 Sudeste 34 Sur 0 -- -- 49
2018-05-23 16:00:00 25.4 19 Sudeste 31 Este 0 -- -- 47
2018-05-23 15:00:00 25.8 15 Sudeste 30 Sur 0 -- -- 42
2018-05-23 14:00:00 24.6 17 Sudeste 28 Sudeste 0 -- -- 45
2018-05-23 13:00:00 23.7 13 Sudeste 26 Este 0 -- -- 48
2018-05-23 12:00:00 22.9 12 Sudeste 19 Sudeste 0 -- -- 50
2018-05-23 11:00:00 21.8 5 Sudeste 12 Sur 0 -- -- 58
2018-05-23 10:00:00 19.4 3 Oeste 6 Sudeste 0 -- -- 65
2018-05-23 09:00:00 17.9 0 Calma 4 Oeste 0 -- -- 71
2018-05-23 08:00:00 14.8 0 Calma 5 Oeste 0 -- -- 82
2018-05-23 07:00:00 13 0 Calma 6 Norte 0 -- -- 89
2018-05-23 06:00:00 13.3 2 Norte 5 Noroeste 0 -- -- 89
2018-05-23 05:00:00 14.2 3 Noroeste 8 Noroeste 0 -- -- 86
2018-05-23 04:00:00 14.9 3 Noroeste 5 Oeste 0 -- -- 86
2018-05-23 03:00:00 15.2 0 Calma 8 Sudoeste 0 -- -- 86
2018-05-23 02:00:00 15.7 0 Calma 8 Oeste 0 -- -- 86
2018-05-23 01:00:00 15.6 0 Calma 4 Sudoeste 0 -- -- 88
2018-05-23 00:00:00 16 3 Noroeste 4 Noroeste 0 -- -- 87
2018-05-22 23:00:00 16.3 2 Nordeste 7 Nordeste 0 -- -- 85
2018-05-22 22:00:00 16.9 2 Norte 6 Sudeste 0 -- -- 82
2018-05-22 21:00:00 17.2 3 Este 8 Sudeste 0 -- -- 78
2018-05-22 20:00:00 17.9 5 Sur 13 Sudeste 0 -- -- 75
2018-05-22 19:00:00 18 11 Sudeste 16 Sudeste 0 -- -- 73
2018-05-22 18:00:00 18.7 4 Sudeste 14 Sur 0 -- -- 69
2018-05-22 17:00:00 18 10 Sudeste 15 Sudeste 0 -- -- 77
2018-05-22 16:00:00 17.1 4 Nordeste 18 Este 0.6 -- -- 84
2018-05-22 15:00:00 15.1 12 Norte 40 Noroeste 4.8 -- -- 87
2018-05-22 14:00:00 23.1 14 Sudeste 26 Sur 0 -- -- 44
2018-05-22 13:00:00 24.8 11 Sur 27 Sudeste 0 -- -- 37
2018-05-22 12:00:00 24 6 Sur 18 Sudeste 0 -- -- 40
2018-05-22 11:00:00 22.7 5 Sudeste 19 Oeste 0 -- -- 43
2018-05-22 10:00:00 19.9 9 Oeste 15 Oeste 0 -- -- 52
2018-05-22 09:00:00 16.4 6 Noroeste 17 Oeste 0 -- -- 67
2018-05-22 08:00:00 13.2 4 Oeste 9 Oeste 0 -- -- 76
2018-05-22 07:00:00 11.6 4 Oeste 7 Oeste 0 -- -- 82
2018-05-22 06:00:00 11.8 2 Noroeste 8 Oeste 0 -- -- 83
2018-05-22 05:00:00 12.6 0 Calma 17 Oeste 0 -- -- 80
2018-05-22 04:00:00 12.9 9 Noroeste 17 Oeste 0 -- -- 80
2018-05-22 03:00:00 12.6 0 Calma 5 Noroeste 0 -- -- 84
2018-05-22 02:00:00 13.4 3 Sudoeste 13 Noroeste 0 -- -- 79
2018-05-22 01:00:00 13.5 0 Calma 8 Oeste 0 -- -- 80
2018-05-22 00:00:00 14 4 Oeste 6 Oeste 0 -- -- 78
2018-05-21 23:00:00 14.9 3 Norte 13 Nordeste 0 -- -- 76
2018-05-21 22:00:00 15.7 7 Nordeste 11 Nordeste 0 -- -- 73
2018-05-21 21:00:00 17.6 6 Este 10 Sudeste 0 -- -- 61
2018-05-21 20:00:00 20.2 4 Este 14 Sur 0 -- -- 59
2018-05-21 19:00:00 20.4 6 Sur 19 Sudeste 0 -- -- 61
2018-05-21 18:00:00 19.4 12 Sur 21 Sudeste 0 -- -- 65
2018-05-21 17:00:00 19.2 0 Calma 22 Este 0.2 -- -- 60
2018-05-21 16:00:00 17.5 11 Este 24 Este 0 -- -- 66
2018-05-21 15:00:00 17.9 10 Noroeste 22 Norte 0.8 -- -- 68
2018-05-21 14:00:00 17.3 14 Nordeste 33 Nordeste 1.8 -- -- 72
2018-05-21 13:00:00 24.8 5 Sudoeste 22 Sudeste 0 -- -- 33
2018-05-21 12:00:00 22.1 6 Sudoeste 13 Este 0 -- -- 40
2018-05-21 11:00:00 21.3 5 Sudeste 10 Sudeste 0 -- -- 47
2018-05-21 10:00:00 18 0 Calma 9 Sudoeste 0 -- -- 62
2018-05-21 09:00:00 15.3 5 Oeste 9 Sudoeste 0 -- -- 72
2018-05-21 08:00:00 12.9 4 Oeste 10 Oeste 0 -- -- 81
2018-05-21 07:00:00 12.9 6 Noroeste 18 Noroeste 0 -- -- 81
2018-05-21 06:00:00 13.6 5 Noroeste 10 Oeste 0 -- -- 78
2018-05-21 05:00:00 13.8 3 Oeste 8 Oeste 0 -- -- 79
2018-05-21 04:00:00 14 2 Sudoeste 6 Oeste 0 -- -- 78
2018-05-21 03:00:00 13.7 0 Calma 5 Nordeste 0 -- -- 79
2018-05-21 02:00:00 14.3 0 Calma 5 Nordeste 0 -- -- 78
2018-05-21 01:00:00 14.6 3 Nordeste 9 Nordeste 0 -- -- 76
2018-05-21 00:00:00 15.2 3 Nordeste 10 Este 0 -- -- 73
2018-05-20 23:00:00 15.7 5 Nordeste 15 Este 0 -- -- 70
2018-05-20 22:00:00 16.7 10 Este 22 Este 0 -- -- 65
2018-05-20 21:00:00 18.1 12 Este 26 Sudeste 0 -- -- 60
2018-05-20 20:00:00 19.3 16 Sudeste 30 Sudeste 0 -- -- 56
2018-05-20 19:00:00 20.1 17 Sudeste 36 Sudeste 0 -- -- 51
2018-05-20 18:00:00 21.6 15 Este 30 Este 0 -- -- 46
2018-05-20 17:00:00 20.8 17 Este 34 Este 0 -- -- 48
2018-05-20 16:00:00 22.3 20 Este 37 Sudeste 0 -- -- 43
2018-05-20 15:00:00 23.1 19 Sudeste 33 Sudeste 0 -- -- 39
2018-05-20 14:00:00 23.2 16 Sudeste 35 Sudeste 0 -- -- 37
2018-05-20 13:00:00 23 17 Sudeste 29 Sur 0 -- -- 36
2018-05-20 12:00:00 22.2 14 Sudeste 26 Este 0 -- -- 38
2018-05-20 11:00:00 21.1 5 Sudeste 13 Sudeste 0 -- -- 39
2018-05-20 10:00:00 19.8 4 Sur 8 Sudoeste 0 -- -- 52
2018-05-20 09:00:00 16 0 Calma 4 Nordeste 0 -- -- 56
2018-05-20 08:00:00 14.3 0 Calma 4 Norte 0 -- -- 63
2018-05-20 07:00:00 13.2 4 Norte 6 Norte 0 -- -- 68
2018-05-20 06:00:00 13.4 0 Calma 8 Nordeste 0 -- -- 68
2018-05-20 05:00:00 13.9 3 Norte 5 Este 0 -- -- 67
2018-05-20 04:00:00 14.3 2 Norte 5 Este 0 -- -- 69
2018-05-20 03:00:00 14.9 4 Nordeste 8 Nordeste 0 -- -- 68
2018-05-20 02:00:00 15.4 0 Calma 3 Sur 0 -- -- 64
2018-05-20 01:00:00 15.4 0 Calma 2 Sudeste 0 -- -- 65
2018-05-20 00:00:00 16.1 0 Calma 8 Sudeste 0 -- -- 60
2018-05-19 23:00:00 16.8 5 Sudeste 16 Sudeste 0 -- -- 56
2018-05-19 22:00:00 17.7 7 Sudeste 20 Sudeste 0 -- -- 53
2018-05-19 21:00:00 18.6 11 Sudeste 23 Sudeste 0 -- -- 49
2018-05-19 20:00:00 19.9 11 Sudeste 20 Sudeste 0 -- -- 46
2018-05-19 19:00:00 20.7 5 Este 20 Este 0 -- -- 49
2018-05-19 18:00:00 21.2 14 Sudeste 33 Sudeste 0 -- -- 44
2018-05-19 17:00:00 21.9 18 Sudeste 36 Sudeste 0 -- -- 42
2018-05-19 16:00:00 22.5 21 Sudeste 34 Sudeste 0 -- -- 41
2018-05-19 15:00:00 23.2 17 Sudeste 37 Sudeste 0 -- -- 40
2018-05-19 14:00:00 22.5 19 Sudeste 35 Sudeste 0 -- -- 42
2018-05-19 13:00:00 22.8 18 Sudeste 31 Sudeste 0 -- -- 40
2018-05-19 12:00:00 22.1 18 Sudeste 35 Este 0 -- -- 38
2018-05-19 11:00:00 20.5 8 Sudeste 18 Sudeste 0 -- -- 47
2018-05-19 10:00:00 18.9 3 Sudeste 12 Oeste 0 -- -- 57
2018-05-19 09:00:00 14.7 7 Oeste 14 Noroeste 0 -- -- 71
2018-05-19 08:00:00 12.1 8 Noroeste 15 Noroeste 0 -- -- 79
2018-05-19 07:00:00 9.8 2 Noroeste 8 Oeste 0 -- -- 84
2018-05-19 06:00:00 9.8 2 Norte 4 Norte 0 -- -- 84
2018-05-19 05:00:00 10.3 0 Calma 5 Este 0 -- -- 83
2018-05-19 04:00:00 10.9 0 Calma 5 Nordeste 0 -- -- 80
2018-05-19 03:00:00 11.7 0 Calma 6 Nordeste 0 -- -- 77
2018-05-19 02:00:00 13 2 Norte 6 Nordeste 0 -- -- 72
2018-05-19 01:00:00 14.1 2 Norte 8 Sudeste 0 -- -- 68
2018-05-19 00:00:00 15.7 5 Sudeste 12 Sudeste 0 -- -- 63
2018-05-18 23:00:00 16.2 8 Sudeste 15 Este 0 -- -- 61
2018-05-18 22:00:00 16.9 11 Este 18 Este 0 -- -- 61
2018-05-18 21:00:00 17.7 9 Sudeste 22 Sudeste 0 -- -- 60
2018-05-18 20:00:00 18.9 11 Sudeste 20 Sudeste 0 -- -- 55
2018-05-18 19:00:00 20.1 10 Sudeste 17 Este 0 -- -- 46
2018-05-18 18:00:00 20.5 12 Este 25 Sudeste 0 -- -- 47
2018-05-18 17:00:00 20.3 14 Este 37 Este 0 -- -- 49
2018-05-18 16:00:00 21.5 23 Este 45 Sudeste 0 -- -- 46
2018-05-18 15:00:00 23.6 16 Sudeste 37 Sudeste 0 -- -- 37
2018-05-18 14:00:00 23.1 12 Sudeste 28 Sudeste 0 -- -- 37
2018-05-18 13:00:00 22.2 13 Sudeste 22 Este 0 -- -- 38
2018-05-18 12:00:00 21.2 5 Sur 13 Sudeste 0 -- -- 40
2018-05-18 11:00:00 20.6 5 Sudeste 11 Sudeste 0 -- -- 43
2018-05-18 10:00:00 17.9 3 Oeste 8 Oeste 0 -- -- 54
2018-05-18 09:00:00 15.1 4 Oeste 8 Oeste 0 -- -- 62
2018-05-18 08:00:00 13.6 0 Calma 11 Oeste 0 -- -- 66
2018-05-18 07:00:00 11.9 5 Oeste 10 Oeste 0 -- -- 74
2018-05-18 06:00:00 10.9 4 Noroeste 7 Noroeste 0 -- -- 79
2018-05-18 05:00:00 11.7 2 Sur 6 Oeste 0 -- -- 77
2018-05-18 04:00:00 12.9 0 Calma 7 Sudoeste 0 -- -- 73
2018-05-18 03:00:00 13.4 2 Nordeste 4 Noroeste 0 -- -- 72
2018-05-18 02:00:00 14.5 3 Sudeste 5 Sudeste 0 -- -- 68
2018-05-18 01:00:00 14.9 0 Calma 7 Sudeste 0 -- -- 64
2018-05-18 00:00:00 15.4 3 Sudeste 5 Sudeste 0 -- -- 62
2018-05-17 23:00:00 16.1 5 Este 13 Este 0 -- -- 59
2018-05-17 22:00:00 16.7 9 Este 21 Este 0 -- -- 57
2018-05-17 21:00:00 17.8 14 Sudeste 26 Sudeste 0 -- -- 52
2018-05-17 20:00:00 19.1 15 Sudeste 34 Sur 0 -- -- 48
2018-05-17 19:00:00 20.5 21 Sudeste 37 Este 0 -- -- 45
2018-05-17 18:00:00 21.7 20 Sudeste 33 Este 0 -- -- 42
2018-05-17 17:00:00 22.7 19 Sudeste 35 Sudeste 0 -- -- 38
2018-05-17 16:00:00 23.3 18 Sudeste 32 Sudeste 0 -- -- 36
2018-05-17 15:00:00 23.2 19 Sudeste 34 Sudeste 0 -- -- 36
2018-05-17 14:00:00 23.3 14 Sur 28 Sudeste 0 -- -- 35
2018-05-17 13:00:00 22.6 13 Sudeste 26 Sudeste 0 -- -- 37
2018-05-17 12:00:00 21.5 13 Sudeste 25 Sur 0 -- -- 40
2018-05-17 11:00:00 21.2 8 Sudeste 16 Sur 0 -- -- 39
2018-05-17 10:00:00 19.7 0 Calma 7 Oeste 0 -- -- 43
2018-05-17 09:00:00 15.2 3 Oeste 5 Oeste 0 -- -- 52
2018-05-17 08:00:00 12.1 3 Oeste 6 Oeste 0 -- -- 59
2018-05-17 07:00:00 8.7 2 Oeste 5 Oeste 0 -- -- 70
2018-05-17 06:00:00 9 2 Oeste 8 Oeste 0 -- -- 68
2018-05-17 05:00:00 9.2 0 Calma 7 Oeste 0 -- -- 67
2018-05-17 04:00:00 9.9 3 Sudoeste 7 Sudoeste -- -- -- 64
2018-05-17 03:00:00 10 2 Noroeste 4 Norte 0 -- -- 64
2018-05-17 02:00:00 10.4 0 Calma 4 Norte 0 -- -- 61
2018-05-17 01:00:00 12 5 Norte 8 Nordeste 0 -- -- 57
2018-05-17 00:00:00 13.1 4 Norte 7 Nordeste 0 -- -- 53
2018-05-16 23:00:00 13.9 4 Nordeste 10 Este 0 -- -- 50
2018-05-16 22:00:00 15.6 5 Nordeste 12 Sudeste 0 -- -- 44
2018-05-16 21:00:00 17.6 8 Este 27 Sudeste 0 -- -- 41
2018-05-16 20:00:00 19.8 15 Sudeste 28 Este 0 -- -- 36
2018-05-16 19:00:00 21.4 15 Este 34 Sudeste 0 -- -- 35
2018-05-16 18:00:00 22.1 19 Sudeste 35 Este 0 -- -- 36
2018-05-16 17:00:00 22.3 18 Sudeste 35 Sudeste 0 -- -- 36
2018-05-16 16:00:00 22.6 19 Sudeste 32 Sudeste 0 -- -- 37
2018-05-16 15:00:00 22.6 18 Sudeste 36 Sudeste 0 -- -- 38
2018-05-16 14:00:00 22 18 Sudeste 35 Sudeste 0 -- -- 39
2018-05-16 13:00:00 21.2 19 Sudeste 34 Sudeste 0 -- -- 42
2018-05-16 12:00:00 21.3 14 Sudeste 27 Sudeste 0 -- -- 42
2018-05-16 11:00:00 19.8 10 Sudeste 15 Sur 0 -- -- 44
2018-05-16 10:00:00 18.9 0 Calma 6 Sudeste 0 -- -- 46
2018-05-16 09:00:00 15.8 3 Sudeste 5 Este 0 -- -- 55
2018-05-16 08:00:00 13 2 Nordeste 6 Nordeste 0 -- -- 64
2018-05-16 07:00:00 9.5 3 Norte 6 Norte 0 -- -- 76
2018-05-16 06:00:00 9.9 4 Nordeste 6 Nordeste 0 -- -- 73
2018-05-16 05:00:00 10.1 2 Norte 6 Nordeste 0 -- -- 74
2018-05-16 04:00:00 10.5 4 Norte 7 Norte 0 -- -- 72
2018-05-16 03:00:00 10.7 0 Calma 5 Sudoeste 0 -- -- 72
2018-05-16 02:00:00 11.4 4 Norte 6 Norte 0 -- -- 69
2018-05-16 01:00:00 11.7 2 Nordeste 6 Nordeste 0 -- -- 68
2018-05-16 00:00:00 12.9 4 Nordeste 8 Nordeste 0 -- -- 63
2018-05-15 23:00:00 13.9 4 Norte 6 Nordeste 0 -- -- 60
2018-05-15 22:00:00 15.2 5 Sudeste 17 Sudeste 0 -- -- 57
2018-05-15 21:00:00 17 10 Sudeste 23 Sudeste 0 -- -- 51
2018-05-15 20:00:00 19.2 15 Sudeste 31 Sudeste 0 -- -- 46
2018-05-15 19:00:00 20.6 17 Sudeste 32 Sudeste 0 -- -- 43
2018-05-15 18:00:00 22.5 19 Sudeste 33 Sudeste 0 -- -- 36
2018-05-15 17:00:00 23.8 13 Sudeste 26 Este 0 -- -- 29
2018-05-15 16:00:00 23.4 6 Sudoeste 22 Este 0 -- -- 29
2018-05-15 15:00:00 21.9 8 Sur 19 Sur 0 -- -- 31
2018-05-15 14:00:00 21.1 9 Sur 15 Este 0 -- -- 33
2018-05-15 13:00:00 19.8 3 Nordeste 25 Oeste 0 -- -- 35
2018-05-15 12:00:00 18 5 Sudoeste 15 Sudeste 0 -- -- 37
2018-05-15 11:00:00 17.6 4 Sudoeste 17 Sudoeste 0 -- -- 39
2018-05-15 10:00:00 14.4 10 Sudoeste 19 Oeste 0 -- -- 46
2018-05-15 09:00:00 13.7 2 Noroeste 6 Nordeste 0 -- -- 45
2018-05-15 08:00:00 9.8 0 Calma 20 Oeste 0 -- -- 56
2018-05-15 07:00:00 8.8 12 Oeste 19 Oeste 0 -- -- 58
2018-05-15 06:00:00 8.7 4 Noroeste 14 Oeste 0 -- -- 56
2018-05-15 05:00:00 8.3 3 Norte 9 Norte 0 -- -- 60
2018-05-15 04:00:00 10 5 Noroeste 22 Oeste 0 -- -- 53
2018-05-15 03:00:00 10.8 6 Oeste 17 Noroeste 0 -- -- 54
2018-05-15 02:00:00 11.7 13 Oeste 23 Oeste 0 -- -- 54
2018-05-15 01:00:00 11.3 0 Calma 12 Sur 0 -- -- 79
2018-05-15 00:00:00 12.1 3 Este 9 Este 0 -- -- 75
2018-05-14 23:00:00 13.2 4 Sudeste 15 Sudeste 0 -- -- 69
2018-05-14 22:00:00 17.4 9 Norte 23 Norte 0 -- -- 30
2018-05-14 21:00:00 19 10 Norte 23 Norte 0 -- -- 28
2018-05-14 20:00:00 20.3 12 Noroeste 27 Noroeste 0 -- -- 28
2018-05-14 19:00:00 21 12 Noroeste 34 Oeste 0 -- -- 28
2018-05-14 18:00:00 21.4 14 Noroeste 38 Noroeste 0 -- -- 27
2018-05-14 17:00:00 21.8 16 Noroeste 39 Oeste 0 -- -- 27
2018-05-14 16:00:00 21.3 18 Norte 41 Oeste 0 -- -- 27
2018-05-14 15:00:00 21.4 15 Noroeste 37 Oeste 0 -- -- 26
2018-05-14 14:00:00 19.5 16 Noroeste 33 Oeste 0 -- -- 31
2018-05-14 13:00:00 18.9 18 Noroeste 36 Noroeste 0 -- -- 34
2018-05-14 12:00:00 18.3 13 Noroeste 36 Noroeste 0 -- -- 36
2018-05-14 11:00:00 16.3 13 Oeste 28 Oeste 0 -- -- 41
2018-05-14 10:00:00 13.2 14 Oeste 25 Noroeste 0 -- -- 48
2018-05-14 09:00:00 11.9 13 Oeste 24 Noroeste 0 -- -- 52
2018-05-14 08:00:00 10.8 13 Oeste 25 Oeste 0 -- -- 53
2018-05-14 07:00:00 10.6 12 Oeste 23 Oeste 0 -- -- 52
2018-05-14 06:00:00 10.5 12 Noroeste 19 Oeste 0 -- -- 50
2018-05-14 05:00:00 10.7 10 Noroeste 19 Noroeste 0 -- -- 44
2018-05-14 04:00:00 11.1 8 Noroeste 14 Noroeste 0 -- -- 42
2018-05-14 03:00:00 9 0 Calma 5 Este 0 -- -- 51
2018-05-14 02:00:00 9.1 0 Calma 8 Nordeste 0 -- -- 50
2018-05-14 01:00:00 9.8 3 Norte 6 Norte 0 -- -- 49
2018-05-11 20:00:00 -- -- -- -- -- -- -- -- --
2018-05-11 19:00:00 26.9 11 Sudoeste 27 Oeste 0 -- -- 34
2018-05-11 18:00:00 27.1 12 Oeste 28 Sudoeste 0 -- -- 35
2018-05-11 17:00:00 26.7 13 Sudoeste 26 Oeste 0 -- -- 37
2018-05-11 16:00:00 26.4 12 Sudoeste 28 Sudoeste 0 -- -- 39
2018-05-11 15:00:00 24.4 12 Sudoeste 25 Sudoeste 0 -- -- 47
2018-05-11 14:00:00 23.9 8 Sudoeste 20 Sur 0 -- -- 49
2018-05-11 13:00:00 22.9 4 Sudoeste 15 Sudoeste 0 -- -- 48
2018-05-11 12:00:00 21.1 6 Sur 13 Sur 0 -- -- 50
2018-05-11 11:00:00 18.9 6 Sur 11 Sudeste 0 -- -- 53
2018-05-11 10:00:00 17.9 3 Sur 5 Sur 0 -- -- 57
2018-05-11 09:00:00 14.8 0 Calma 5 Sudoeste 0 -- -- 69
2018-05-11 08:00:00 11 3 Noroeste 6 Noroeste 0 -- -- 85
2018-05-11 07:00:00 9.4 0 Calma 10 Noroeste 0 -- -- 89
2018-05-11 06:00:00 9.6 4 Oeste 7 Oeste 0 -- -- 91
2018-05-11 05:00:00 9.5 0 Calma 4 Este 0 -- -- 91
2018-05-11 04:00:00 10 2 Noroeste 5 Norte 0 -- -- 90
2018-05-11 03:00:00 10.2 3 Oeste 5 Noroeste 0 -- -- 90
2018-05-11 02:00:00 10.8 0 Calma 4 Norte 0 -- -- 89
2018-05-11 01:00:00 11.7 2 Norte 6 Norte 0 -- -- 85
2018-05-11 00:00:00 12.5 2 Norte 10 Nordeste 0 -- -- 82
2018-05-10 23:00:00 13.2 3 Nordeste 9 Este 0 -- -- 78
2018-05-10 22:00:00 14.7 4 Sudeste 18 Sudeste 0 -- -- 73
2018-05-10 21:00:00 16.3 8 Sudeste 22 Sudeste 0 -- -- 67
2018-05-10 20:00:00 18.1 12 Sudeste 29 Sudeste 0 -- -- 60
2018-05-10 19:00:00 18.3 15 Sudeste 27 Sudeste 0 -- -- 58
2018-05-10 18:00:00 18.6 15 Sudeste 30 Sudeste 0 -- -- 57
2018-05-10 17:00:00 21 19 Sudeste 33 Sudeste 0 -- -- 53
2018-05-10 16:00:00 20.5 18 Sudeste 37 Este 0 -- -- 55
2018-05-10 15:00:00 21.3 21 Este 36 Este 0 -- -- 56
2018-05-10 14:00:00 22.7 12 Sudeste 25 Sudeste 0 -- -- 52
2018-05-10 13:00:00 22.3 11 Sudeste 22 Sudeste 0 -- -- 52
2018-05-10 12:00:00 21.5 6 Sur 13 Este 0 -- -- 49
2018-05-10 11:00:00 21.4 5 Sudoeste 15 Oeste 0 -- -- 46
2018-05-10 10:00:00 19.4 9 Oeste 19 Noroeste 0 -- -- 48
2018-05-10 09:00:00 16.4 8 Oeste 14 Sudoeste 0 -- -- 58
2018-05-10 08:00:00 15.7 0 Calma 10 Oeste 0 -- -- 76
2018-05-10 07:00:00 14.3 3 Oeste 6 Oeste 0 -- -- 80
2018-05-10 06:00:00 14.8 3 Norte 7 Oeste 0 -- -- 82
2018-05-10 05:00:00 15.5 5 Nordeste 8 Este 0 -- -- 79
2018-05-10 04:00:00 16 3 Oeste 8 Este 0 -- -- 79
2018-05-10 03:00:00 16.4 4 Este 10 Noroeste 0 -- -- 77
2018-05-10 02:00:00 16.1 0 Calma 9 Este 0 -- -- 78
2018-05-10 01:00:00 15.7 2 Este 8 Oeste 0 -- -- 79
2018-05-10 00:00:00 15.9 0 Calma 8 Norte 0 -- -- 79
2018-05-09 23:00:00 16.2 5 Norte 8 Norte 0 -- -- 77
2018-05-09 22:00:00 17.1 0 Calma 15 Sudeste 0 -- -- 73
2018-05-09 21:00:00 18.3 9 Sudeste 19 Sudeste 0 -- -- 68
2018-05-09 20:00:00 20.3 12 Sudeste 30 Sudeste 0 -- -- 62
2018-05-09 19:00:00 21.7 18 Sudeste 29 Sudeste 0 -- -- 60
2018-05-09 18:00:00 22.4 15 Sudeste 27 Sudeste 0 -- -- 59
2018-05-09 17:00:00 22.9 16 Este 33 Este 0 -- -- 56
2018-05-09 16:00:00 23.1 17 Sudeste 35 Sudeste 0 -- -- 55
2018-05-09 15:00:00 24.2 17 Sudeste 30 Este 0 -- -- 51
2018-05-09 14:00:00 24.8 15 Sudeste 31 Sudeste 0 -- -- 47
2018-05-09 13:00:00 25.8 8 Sur 20 Oeste 0 -- -- 41
2018-05-09 12:00:00 23.3 11 Oeste 22 Sudoeste 0 -- -- 48
2018-05-09 11:00:00 21.7 10 Oeste 20 Oeste 0 -- -- 53
2018-05-09 10:00:00 19 8 Oeste 20 Oeste 0 -- -- 63
2018-05-09 09:00:00 16.2 8 Oeste 18 Oeste 0 -- -- 70
2018-05-09 08:00:00 13.2 2 Noroeste 7 Norte 0 -- -- 85
2018-05-09 07:00:00 10.9 3 Nordeste 7 Norte 0 -- -- 91
2018-05-09 06:00:00 11.3 3 Nordeste 7 Norte 0 -- -- 90
2018-05-09 05:00:00 11.6 0 Calma 7 Norte 0 -- -- 91
2018-05-09 04:00:00 12.1 0 Calma 8 Norte 0 -- -- 91
2018-05-09 03:00:00 12.6 3 Norte 10 Norte 0 -- -- 91
2018-05-09 02:00:00 13.3 6 Noroeste 14 Oeste 0 -- -- 90
2018-05-09 01:00:00 13.6 5 Noroeste 8 Nordeste 0 -- -- 91
2018-05-09 00:00:00 14 3 Norte 6 Este 0 -- -- 92
2018-05-08 23:00:00 14.9 3 Norte 8 Norte 0 -- -- 88
2018-05-08 22:00:00 15.4 4 Norte 8 Norte 0.2 -- -- 86
2018-05-08 21:00:00 17.2 2 Nordeste 12 Nordeste 0 -- -- 81
2018-05-08 20:00:00 18.5 2 Noroeste 6 Norte 0 -- -- 74
2018-05-08 19:00:00 19.5 0 Calma 6 Sudeste 0 -- -- 70
2018-05-08 18:00:00 18 5 Sudeste 10 Este 0 -- -- 75
2018-05-08 17:00:00 18.2 6 Sudeste 13 Este 0.2 -- -- 77
2018-05-08 16:00:00 16.7 7 Este 16 Sudeste 0.4 -- -- 81
2018-05-08 15:00:00 16.5 3 Norte 20 Norte 0.8 -- -- 84
2018-05-08 14:00:00 14.6 17 Noroeste 45 Norte 7.6 -- -- 81
2018-05-08 13:00:00 22.1 10 Este 19 Este 0 -- -- 58
2018-05-08 12:00:00 21.7 7 Oeste 20 Oeste 0 -- -- 53
2018-05-08 11:00:00 19.6 12 Oeste 21 Oeste 0 -- -- 59
2018-05-08 10:00:00 18.6 10 Oeste 17 Oeste 0 -- -- 62
2018-05-08 09:00:00 16.4 7 Oeste 13 Oeste 0 -- -- 69
2018-05-08 08:00:00 14.9 4 Noroeste 13 Noroeste 0 -- -- 74
2018-05-08 07:00:00 14.5 4 Noroeste 17 Noroeste 0 -- -- 75
2018-05-08 06:00:00 14.4 6 Noroeste 12 Oeste 0 -- -- 75
2018-05-08 05:00:00 13.4 2 Nordeste 8 Norte 0 -- -- 77
2018-05-08 04:00:00 13.6 0 Calma 10 Oeste 0 -- -- 76
2018-05-08 03:00:00 13.7 2 Norte 5 Norte 0 -- -- 76
2018-05-08 02:00:00 14.4 4 Norte 7 Norte 0 -- -- 72
2018-05-08 01:00:00 15.4 0 Calma 4 Este 0 -- -- 69
2018-05-08 00:00:00 15.7 2 Norte 4 Norte 0 -- -- 68
2018-05-07 23:00:00 15.8 3 Nordeste 6 Nordeste 0 -- -- 67
2018-05-07 22:00:00 16.1 4 Nordeste 12 Este 0 -- -- 65
2018-05-07 21:00:00 17.9 6 Este 20 Este 0 -- -- 60
2018-05-07 20:00:00 20 12 Sudeste 21 Sudeste 0 -- -- 54
2018-05-07 19:00:00 20.8 13 Sudeste 27 Sudeste 0 -- -- 52
2018-05-07 18:00:00 23 13 Sudeste 32 Sudeste 0 -- -- 45
2018-05-07 17:00:00 23.3 17 Sudeste 36 Sudeste 0 -- -- 45
2018-05-07 16:00:00 23.3 19 Sudeste 35 Sudeste 0 -- -- 43
2018-05-07 15:00:00 24.1 14 Sudeste 33 Sudeste 0 -- -- 41
2018-05-07 14:00:00 23.5 16 Sudeste 27 Sur 0 -- -- 42
2018-05-07 13:00:00 22.7 13 Sudeste 27 Sudeste 0 -- -- 43
2018-05-07 12:00:00 21.7 11 Sudeste 16 Sudeste 0 -- -- 48
2018-05-07 11:00:00 19.8 4 Sudoeste 10 Sudoeste 0.2 -- -- 55
2018-05-07 10:00:00 17.1 3 Sudoeste 10 Oeste 0 -- -- 64
2018-05-07 09:00:00 14.2 6 Oeste 10 Noroeste 0 -- -- 74
2018-05-07 08:00:00 11.5 2 Noroeste 7 Noroeste 0 -- -- 83
2018-05-07 07:00:00 8.9 3 Norte 6 Norte 0 -- -- 89
2018-05-07 06:00:00 9.3 4 Norte 6 Noroeste 0 -- -- 90
2018-05-07 05:00:00 9.5 4 Norte 7 Norte 0 -- -- 90
2018-05-07 04:00:00 10.1 3 Norte 6 Norte 0 -- -- 90
2018-05-07 03:00:00 10.7 0 Calma 7 Oeste 0 -- -- 90
2018-05-07 02:00:00 11.4 5 Noroeste 8 Oeste 0 -- -- 91
2018-05-07 01:00:00 12.2 0 Calma 4 Norte 0 -- -- 89
2018-05-07 00:00:00 12 0 Calma 4 Sudeste 0 -- -- 88
2018-05-06 23:00:00 12.5 3 Norte 6 Norte 0 -- -- 89
2018-05-06 22:00:00 13.6 5 Norte 6 Norte 0 -- -- 86
2018-05-06 21:00:00 15 0 Calma 6 Noroeste 0 -- -- 81
2018-05-06 20:00:00 15.1 4 Sudeste 28 Sudeste 0.2 -- -- 79
2018-05-06 19:00:00 18.2 14 Este 30 Este 0 -- -- 56
2018-05-06 18:00:00 20 16 Sudeste 33 Este 0 -- -- 50
2018-05-06 17:00:00 20.8 15 Sudeste 30 Sudeste 0 -- -- 46
2018-05-06 16:00:00 20.6 13 Este 36 Sudeste 0 -- -- 48
2018-05-06 15:00:00 21.7 18 Sudeste 30 Sudeste 0 -- -- 45
2018-05-06 14:00:00 22 13 Sudeste 26 Este 0 -- -- 45
2018-05-06 13:00:00 21.4 11 Este 23 Sudeste 0 -- -- 46
2018-05-06 12:00:00 20.4 4 Noroeste 13 Sur 0 -- -- 49
2018-05-06 11:00:00 19.5 2 Norte 8 Oeste 0 -- -- 53
2018-05-06 10:00:00 15.7 5 Oeste 10 Oeste 0 -- -- 63
2018-05-06 09:00:00 12.2 4 Oeste 9 Oeste 0 -- -- 75
2018-05-06 08:00:00 10.6 3 Noroeste 10 Oeste 0 -- -- 80
2018-05-06 07:00:00 8.8 3 Oeste 5 Oeste 0 -- -- 86
2018-05-06 06:00:00 8.9 0 Calma 5 Noroeste 0 -- -- 84
2018-05-06 05:00:00 9.7 4 Noroeste 9 Noroeste 0 -- -- 82
2018-05-06 04:00:00 11.2 4 Noroeste 9 Oeste 0 -- -- 77
2018-05-06 03:00:00 9.9 3 Norte 6 Oeste 0 -- -- 81
2018-05-06 02:00:00 10.1 3 Norte 6 Nordeste 0 -- -- 80
2018-05-06 01:00:00 10.8 5 Norte 6 Norte 0 -- -- 76
2018-05-06 00:00:00 12.1 5 Norte 11 Nordeste 0 -- -- 73
2018-05-05 23:00:00 13 8 Nordeste 12 Nordeste 0 -- -- 73
2018-05-05 22:00:00 14 3 Nordeste 20 Este 0 -- -- 65
2018-05-05 21:00:00 15.2 9 Sudeste 21 Sudeste 0 -- -- 59
2018-05-05 20:00:00 16.3 11 Sudeste 21 Sudeste 0 -- -- 53
2018-05-05 19:00:00 17.4 10 Sudeste 20 Este 0 -- -- 54
2018-05-05 18:00:00 16.8 8 Sudeste 21 Sudeste 0 -- -- 60
2018-05-05 17:00:00 17.7 12 Sudeste 25 Este 0 -- -- 55
2018-05-05 16:00:00 19.6 13 Este 30 Sudeste 0 -- -- 45
2018-05-05 15:00:00 20.9 16 Sudeste 25 Sudeste 0 -- -- 41
2018-05-05 14:00:00 21.6 8 Sudeste 17 Sudeste 0 -- -- 39
2018-05-05 13:00:00 22.7 4 Nordeste 15 Sur 0 -- -- 38
2018-05-05 12:00:00 22.5 6 Sur 17 Sudoeste 0 -- -- 37
2018-05-05 11:00:00 19.8 6 Oeste 18 Oeste 0 -- -- 42
2018-05-05 10:00:00 16.6 11 Oeste 19 Oeste 0 -- -- 51
2018-05-05 09:00:00 13.4 8 Oeste 13 Oeste 0 -- -- 60
2018-05-05 08:00:00 12.5 3 Oeste 9 Oeste 0 -- -- 63
2018-05-05 07:00:00 11.7 0 Calma 5 Oeste 0 -- -- 70
2018-05-05 06:00:00 11.9 0 Calma 7 Noroeste 0 -- -- 68
2018-05-05 05:00:00 11.6 2 Noroeste 6 Noroeste 0 -- -- 72
2018-05-05 04:00:00 11.8 0 Calma 4 Noroeste 0 -- -- 70
2018-05-05 03:00:00 12.1 0 Calma 8 Noroeste 0 -- -- 70
2018-05-05 02:00:00 12.4 6 Oeste 10 Noroeste 0 -- -- 68
2018-05-05 01:00:00 12.3 2 Oeste 7 Noroeste 0 -- -- 69
2018-05-05 00:00:00 12.6 3 Norte 13 Noroeste 0 -- -- 69
2018-05-04 23:00:00 12.5 3 Norte 7 Este 0.2 -- -- 73
2018-05-04 22:00:00 13.4 5 Sudeste 11 Sudeste 0 -- -- 60
2018-05-04 21:00:00 14.1 4 Sudeste 18 Este 0 -- -- 57
2018-05-04 20:00:00 14.9 10 Sudeste 24 Este 0 -- -- 58
2018-05-04 19:00:00 17.1 15 Sudeste 28 Sudeste 0 -- -- 44
2018-05-04 18:00:00 19.1 11 Sudeste 18 Sudeste 0 -- -- 39
2018-05-04 17:00:00 19.5 3 Norte 12 Este 0 -- -- 35
2018-05-04 16:00:00 19.7 4 Este 10 Sur 0 -- -- 36
2018-05-04 15:00:00 19.1 4 Oeste 14 Sudoeste 0 -- -- 36
2018-05-04 14:00:00 18.1 5 Oeste 15 Oeste 0 -- -- 39
2018-05-04 13:00:00 18.2 8 Sudoeste 19 Oeste 0 -- -- 38
2018-05-04 12:00:00 16.4 12 Oeste 27 Oeste 0 -- -- 44
2018-05-04 11:00:00 15.6 15 Oeste 26 Oeste 0 -- -- 44
2018-05-04 10:00:00 13.5 15 Oeste 25 Oeste 0 -- -- 48
2018-05-04 09:00:00 10 14 Noroeste 34 Noroeste 0 -- -- 58
2018-05-04 08:00:00 9 13 Oeste 30 Oeste 0 -- -- 59
2018-05-04 07:00:00 8.5 16 Noroeste 27 Oeste 0 -- -- 60
2018-05-04 06:00:00 8.7 18 Noroeste 25 Oeste 0 -- -- 58
2018-05-04 05:00:00 8.7 10 Oeste 25 Oeste 0 -- -- 58
2018-05-04 04:00:00 9.3 17 Oeste 29 Noroeste 0 -- -- 56
2018-05-04 03:00:00 9.9 16 Noroeste 28 Noroeste 0 -- -- 55
2018-05-04 02:00:00 10.5 12 Noroeste 25 Oeste 0 -- -- 54
2018-05-04 01:00:00 11.6 11 Oeste 22 Oeste 0 -- -- 52
2018-05-04 00:00:00 12.9 13 Noroeste 22 Oeste 0 -- -- 49
2018-05-03 23:00:00 13.4 5 Noroeste 17 Norte 0 -- -- 48
2018-05-03 22:00:00 15.2 6 Norte 24 Noroeste 0 -- -- 41
2018-05-03 21:00:00 16.5 10 Norte 24 Noroeste 0 -- -- 38
2018-05-03 20:00:00 19.5 12 Noroeste 30 Noroeste 0 -- -- 29
2018-05-03 19:00:00 20.3 18 Noroeste 39 Oeste 0 -- -- 29
2018-05-03 18:00:00 20.6 21 Noroeste 37 Noroeste 0 -- -- 27
2018-05-03 17:00:00 21.4 16 Noroeste 36 Noroeste 0 -- -- 26
2018-05-03 16:00:00 21.8 15 Noroeste 38 Oeste 0 -- -- 25
2018-05-03 15:00:00 20.8 17 Noroeste 41 Oeste 0 -- -- 27
2018-05-03 14:00:00 20.5 19 Noroeste 48 Oeste 0 -- -- 29
2018-05-03 13:00:00 19.7 23 Oeste 48 Noroeste 0 -- -- 32
2018-05-03 12:00:00 18.5 22 Oeste 50 Oeste 0 -- -- 38
2018-05-03 11:00:00 17.3 24 Noroeste 44 Noroeste 0 -- -- 43
2018-05-03 10:00:00 16.9 17 Oeste 32 Norte 0 -- -- 44
2018-05-03 09:00:00 13.9 3 Sudoeste 16 Oeste 0 -- -- 54
2018-05-03 08:00:00 13 12 Noroeste 26 Oeste 0 -- -- 59
2018-05-03 07:00:00 12.7 15 Noroeste 28 Noroeste 0 -- -- 60
2018-05-03 06:00:00 13.2 16 Oeste 34 Noroeste 0 -- -- 58
2018-05-03 05:00:00 13.1 12 Oeste 30 Oeste 0 -- -- 59
2018-05-03 04:00:00 13.1 17 Oeste 31 Noroeste 0 -- -- 59
2018-05-03 03:00:00 13.6 17 Oeste 35 Oeste 0 -- -- 56
2018-05-03 02:00:00 14 12 Oeste 26 Oeste 0 -- -- 51
2018-05-03 01:00:00 14.6 12 Noroeste 19 Oeste 0 -- -- 45
2018-05-03 00:00:00 14.9 10 Noroeste 17 Noroeste 0 -- -- 44
2018-05-02 23:00:00 15.2 8 Noroeste 15 Noroeste 0 -- -- 43
2018-05-02 22:00:00 16.8 12 Noroeste 22 Noroeste 0 -- -- 38
2018-05-02 21:00:00 17.3 7 Noroeste 20 Oeste 0 -- -- 36
2018-05-02 20:00:00 18.6 10 Noroeste 23 Noroeste 0 -- -- 33
2018-05-02 19:00:00 19.2 12 Noroeste 30 Noroeste 0 -- -- 32
2018-05-02 18:00:00 20.6 15 Oeste 39 Noroeste 0 -- -- 28
2018-05-02 17:00:00 19.3 15 Oeste 41 Sudoeste 0 -- -- 29
2018-05-02 16:00:00 19.2 20 Oeste 42 Sudoeste 0 -- -- 29
2018-05-02 15:00:00 19.7 17 Oeste 37 Oeste 0 -- -- 27
2018-05-02 14:00:00 18.9 12 Oeste 26 Oeste 0 -- -- 27
2018-05-02 13:00:00 17.8 11 Noroeste 29 Noroeste 0 -- -- 29
2018-05-02 12:00:00 17.5 15 Noroeste 33 Noroeste 0 -- -- 29
2018-05-02 11:00:00 16.3 13 Noroeste 31 Oeste 0 -- -- 34
2018-05-02 10:00:00 13.9 12 Oeste 21 Oeste 0 -- -- 40
2018-05-02 09:00:00 11.1 10 Oeste 21 Oeste 0 -- -- 49
2018-05-02 08:00:00 7.7 14 Oeste 22 Oeste 0 -- -- 59
2018-05-02 07:00:00 5.7 14 Noroeste 24 Noroeste 0 -- -- 69
2018-05-02 06:00:00 5 4 Oeste 15 Oeste 0 -- -- 78
2018-05-02 05:00:00 5.4 4 Oeste 24 Noroeste 0 -- -- 79
2018-05-02 04:00:00 4.8 2 Nordeste 12 Oeste 0 -- -- 85
2018-05-02 03:00:00 4.8 2 Nordeste 7 Nordeste 0 -- -- 84
2018-05-02 02:00:00 5.5 0 Calma 5 Norte 0 -- -- 82
2018-05-02 01:00:00 6.7 5 Nordeste 7 Nordeste 0 -- -- 78
2018-05-02 00:00:00 7.9 3 Nordeste 10 Este 0 -- -- 74
2018-05-01 23:00:00 8.9 6 Nordeste 10 Este 0 -- -- 70
2018-05-01 22:00:00 10.2 5 Este 16 Este 0 -- -- 66
2018-05-01 21:00:00 11 10 Este 21 Este 0 -- -- 61
2018-05-01 20:00:00 13.2 12 Sudeste 24 Este 0 -- -- 54
2018-05-01 19:00:00 15.8 14 Este 27 Sudeste 0 -- -- 42
2018-05-01 18:00:00 16 12 Este 25 Este 0 -- -- 39
2018-05-01 17:00:00 17.7 12 Oeste 24 Oeste 0 -- -- 29
2018-05-01 16:00:00 17.2 11 Oeste 28 Oeste 0 -- -- 29
2018-05-01 15:00:00 16.8 12 Noroeste 27 Norte 0 -- -- 30
2018-05-01 14:00:00 15.7 14 Noroeste 24 Oeste 0 -- -- 33
2018-05-01 13:00:00 14.2 8 Noroeste 24 Oeste 0 -- -- 38
2018-05-01 12:00:00 14.4 10 Nordeste 21 Este 0 -- -- 38
2018-05-01 11:00:00 12.7 8 Norte 27 Norte 0 -- -- 41
2018-05-01 10:00:00 12.8 7 Noroeste 17 Sudoeste 0 -- -- 41
2018-05-01 09:00:00 9.6 10 Oeste 22 Oeste 0 -- -- 56
2018-05-01 08:00:00 7 14 Noroeste 23 Oeste 0 -- -- 65
2018-05-01 07:00:00 5.6 14 Oeste 22 Oeste 0 -- -- 69
2018-05-01 06:00:00 6 13 Oeste 22 Oeste 0 -- -- 68
2018-05-01 05:00:00 5.9 13 Noroeste 24 Noroeste 0 -- -- 70
2018-05-01 04:00:00 6.4 11 Oeste 21 Oeste 0 -- -- 68
2018-05-01 03:00:00 6.7 11 Noroeste 24 Noroeste 0 -- -- 69
2018-05-01 02:00:00 7.1 6 Noroeste 23 Noroeste 0 -- -- 69
2018-05-01 01:00:00 7.8 14 Noroeste 23 Noroeste 0 -- -- 65
2018-05-01 00:00:00 8.6 16 Noroeste 26 Noroeste 0 -- -- 61
2018-04-30 23:00:00 9.5 10 Noroeste 19 Noroeste 0 -- -- 54
2018-04-30 22:00:00 10.7 13 Oeste 23 Noroeste 0 -- -- 52
2018-04-30 21:00:00 12.1 14 Noroeste 38 Oeste 0 -- -- 48
2018-04-30 20:00:00 13.5 17 Oeste 30 Oeste 0 -- -- 42
2018-04-30 19:00:00 14.9 15 Oeste 29 Sudoeste 0 -- -- 38
2018-04-30 18:00:00 15.5 13 Oeste 33 Oeste 0 -- -- 38
2018-04-30 17:00:00 16.2 15 Oeste 37 Oeste 0 -- -- 33
2018-04-30 16:00:00 15.5 21 Oeste 38 Sudoeste 0 -- -- 33
2018-04-30 15:00:00 14.5 17 Oeste 31 Sudoeste 0 -- -- 38
2018-04-30 14:00:00 13.7 12 Oeste 29 Oeste 0 -- -- 41
2018-04-30 13:00:00 12.8 14 Oeste 32 Oeste 0 -- -- 42
2018-04-30 12:00:00 12 17 Noroeste 35 Noroeste 0 -- -- 45
2018-04-30 11:00:00 12.1 19 Noroeste 35 Noroeste 0 -- -- 47
2018-04-30 10:00:00 10.9 11 Noroeste 21 Oeste 0 -- -- 53
2018-04-30 09:00:00 9.2 10 Oeste 19 Oeste 0 -- -- 61
2018-04-30 08:00:00 7.3 8 Noroeste 12 Noroeste 0 -- -- 70
2018-04-30 07:00:00 5.9 8 Noroeste 15 Noroeste 0 -- -- 73
2018-04-30 06:00:00 6.7 10 Noroeste 18 Noroeste 0 -- -- 71
2018-04-30 05:00:00 6.8 8 Noroeste 23 Oeste 0 -- -- 72
2018-04-30 04:00:00 7.1 7 Noroeste 15 Oeste 0 -- -- 71
2018-04-30 03:00:00 7.5 9 Noroeste 20 Oeste 0 -- -- 69
2018-04-30 02:00:00 8.5 13 Oeste 24 Oeste 0 -- -- 64
2018-04-30 01:00:00 9.4 14 Oeste 35 Noroeste 0 -- -- 61
2018-04-30 00:00:00 10 10 Oeste 23 Noroeste 0 -- -- 61
2018-04-29 23:00:00 10.4 11 Noroeste 26 Oeste 0 -- -- 60
2018-04-29 22:00:00 11.2 13 Noroeste 29 Noroeste 0 -- -- 57
2018-04-29 21:00:00 11.3 9 Noroeste 22 Noroeste 0 -- -- 59
2018-04-29 20:00:00 13 12 Noroeste 33 Noroeste 0 -- -- 59
2018-04-29 19:00:00 10.4 16 Noroeste 72 Oeste 0.6 -- -- 72
2018-04-29 18:00:00 14.9 28 Oeste 57 Oeste 0 -- -- 43
2018-04-29 17:00:00 13.8 24 Oeste 58 Oeste 0 -- -- 52
2018-04-29 16:00:00 12 27 Noroeste 60 Oeste 0 -- -- 61
2018-04-29 15:00:00 10.5 31 Oeste 58 Noroeste 0.6 -- -- 70
2018-04-29 14:00:00 13 27 Sudoeste 49 Oeste 0.2 -- -- 54
2018-04-29 13:00:00 11.7 33 Oeste 58 Sudoeste 0 -- -- 61
2018-04-29 12:00:00 11.8 24 Oeste 57 Oeste 0 -- -- 60
2018-04-29 11:00:00 11.4 27 Oeste 47 Oeste 0 -- -- 59
2018-04-29 10:00:00 10.6 28 Oeste 49 Oeste 0 -- -- 59
2018-04-29 09:00:00 10.2 24 Oeste 46 Oeste 0 -- -- 63
2018-04-29 08:00:00 9.7 25 Oeste 46 Oeste 0 -- -- 68
2018-04-29 07:00:00 10 11 Oeste 27 Oeste 0 -- -- 68
2018-04-29 06:00:00 10.3 8 Oeste 18 Noroeste 0 -- -- 77
2018-04-29 05:00:00 10.7 9 Noroeste 24 Noroeste 0 -- -- 77
2018-04-29 04:00:00 12 7 Noroeste 12 Noroeste 0.2 -- -- 94
2018-04-29 03:00:00 13.2 2 Sur 8 Noroeste 2.4 -- -- 94
2018-04-29 02:00:00 12.9 3 Este 10 Nordeste 0.2 -- -- 92
2018-04-29 01:00:00 13 2 Nordeste 8 Nordeste 0 -- -- 93
2018-04-29 00:00:00 14.2 2 Noroeste 9 Norte 0.4 -- -- 93
2018-04-28 23:00:00 14.5 0 Calma 10 Nordeste 0.4 -- -- 90
2018-04-28 22:00:00 14.8 4 Este 13 Sudeste 0 -- -- 88
2018-04-28 21:00:00 15.3 9 Sudeste 21 Sudeste 0 -- -- 84
2018-04-28 20:00:00 16.3 15 Sudeste 28 Sudeste 0 -- -- 80
2018-04-28 19:00:00 17.8 13 Sudeste 28 Sudeste 0 -- -- 72
2018-04-28 18:00:00 18.5 12 Sudeste 28 Sudeste 0 -- -- 71
2018-04-28 17:00:00 19.6 15 Sudeste 35 Sudeste 0 -- -- 68
2018-04-28 16:00:00 21.1 21 Sudeste 38 Sudeste 0 -- -- 60
2018-04-28 15:00:00 25.2 18 Sur 39 Sudoeste 0 -- -- 28
2018-04-28 14:00:00 24.2 14 Sur 36 Sudoeste 0 -- -- 28
2018-04-28 13:00:00 22.6 13 Este 27 Este 0 -- -- 42
2018-04-28 12:00:00 22.1 4 Oeste 13 Sudeste 0 -- -- 42
2018-04-28 11:00:00 20.3 4 Sur 8 Sur 0 -- -- 53
2018-04-28 10:00:00 17.5 2 Sur 6 Sudeste 0 -- -- 56
2018-04-28 09:00:00 15.5 0 Calma 4 Este 0 -- -- 62
2018-04-28 08:00:00 11.1 0 Calma 3 Norte 0 -- -- 87
2018-04-28 07:00:00 8.9 0 Calma 4 Nordeste 0 -- -- 90
2018-04-28 06:00:00 9.9 2 Noroeste 5 Norte 0 -- -- 88
2018-04-28 05:00:00 10.6 4 Nordeste 10 Nordeste 0 -- -- 78
2018-04-28 04:00:00 11.5 5 Este 12 Este 0 -- -- 79
2018-04-28 03:00:00 12.2 3 Sudeste 5 Este 0 -- -- 83
2018-04-28 02:00:00 13.1 0 Calma 6 Nordeste 0 -- -- 83
2018-04-28 01:00:00 14.4 3 Norte 6 Norte 0 -- -- 81
2018-04-28 00:00:00 15.8 4 Norte 10 Norte 0 -- -- 79
2018-04-27 23:00:00 16.6 3 Sudeste 12 Sudeste 0 -- -- 76
2018-04-27 22:00:00 18 8 Sudeste 20 Sudeste 0 -- -- 69
2018-04-27 21:00:00 20.1 13 Sudeste 23 Sudeste 0 -- -- 62
2018-04-27 20:00:00 21.5 14 Sudeste 28 Sudeste 0 -- -- 58
2018-04-27 19:00:00 23.4 18 Sudeste 33 Sudeste 0 -- -- 51
2018-04-27 18:00:00 28.2 15 Sudoeste 35 Sudoeste 0 -- -- 28
2018-04-27 17:00:00 27.5 17 Oeste 33 Oeste 0 -- -- 32
2018-04-27 16:00:00 27.7 15 Oeste 36 Oeste 0 -- -- 33
2018-04-27 15:00:00 27.8 18 Oeste 35 Sudoeste 0 -- -- 32
2018-04-27 14:00:00 27 19 Oeste 34 Oeste 0 -- -- 37
2018-04-27 13:00:00 26.4 12 Oeste 33 Oeste 0 -- -- 39
2018-04-27 12:00:00 25.2 11 Oeste 26 Noroeste 0 -- -- 42
2018-04-27 11:00:00 23 14 Oeste 31 Oeste 0 -- -- 49
2018-04-27 10:00:00 20.4 10 Oeste 22 Oeste 0 -- -- 53
2018-04-27 09:00:00 17.5 9 Noroeste 31 Oeste 0 -- -- 60
2018-04-27 08:00:00 15.9 15 Noroeste 27 Noroeste 0 -- -- 64
2018-04-27 07:00:00 14.4 10 Oeste 22 Oeste 0 -- -- 70
2018-04-27 06:00:00 14.3 10 Oeste 19 Oeste 0 -- -- 73
2018-04-27 05:00:00 13.8 10 Noroeste 16 Noroeste 0 -- -- 76
2018-04-27 04:00:00 14 6 Noroeste 17 Noroeste 0 -- -- 77
2018-04-27 03:00:00 12.9 4 Noroeste 8 Oeste 0 -- -- 84
2018-04-27 02:00:00 13 0 Calma 8 Este 0 -- -- 85
2018-04-27 01:00:00 13.6 0 Calma 6 Norte 0 -- -- 83
2018-04-27 00:00:00 14.4 0 Calma 7 Norte 0 -- -- 80
2018-04-26 23:00:00 15.2 0 Calma 8 Sudeste 0 -- -- 78
2018-04-26 22:00:00 16.7 4 Este 10 Sudeste 0 -- -- 73
2018-04-26 21:00:00 18.4 7 Sudeste 19 Este 0 -- -- 64
2018-04-26 20:00:00 20.4 11 Sudeste 23 Sudeste 0 -- -- 58
2018-04-26 19:00:00 21.9 14 Sudeste 28 Sudeste 0 -- -- 54
2018-04-26 18:00:00 22.7 16 Sudeste 32 Sur 0 -- -- 50
2018-04-26 17:00:00 22.8 17 Sudeste 29 Sudeste 0 -- -- 48
2018-04-26 16:00:00 23.5 15 Sudeste 30 Este 0 -- -- 45
2018-04-26 15:00:00 23 13 Sudeste 28 Sudeste 0 -- -- 44
2018-04-26 14:00:00 22.2 12 Sudeste 25 Este 0 -- -- 45
2018-04-26 13:00:00 21.4 13 Sudeste 26 Sudeste 0 -- -- 47
2018-04-26 12:00:00 19.8 6 Sudoeste 17 Sur 0 -- -- 48
2018-04-26 11:00:00 19.1 7 Sur 16 Sudeste 0 -- -- 49
2018-04-26 10:00:00 17.2 9 Sudeste 14 Sudeste 0 -- -- 56
2018-04-26 09:00:00 16.6 0 Calma 6 Este 0 -- -- 53
2018-04-26 08:00:00 11.8 0 Calma 8 Norte 0 -- -- 67
2018-04-26 07:00:00 10.5 5 Norte 11 Noroeste 0 -- -- 69
2018-04-26 06:00:00 11.3 4 Noroeste 9 Noroeste 0 -- -- 66
2018-04-26 05:00:00 11.3 2 Oeste 8 Oeste 0 -- -- 68
2018-04-26 04:00:00 12 3 Norte 6 Oeste 0 -- -- 68
2018-04-26 03:00:00 13 0 Calma 7 Norte 0 -- -- 64
2018-04-26 02:00:00 13.4 4 Oeste 8 Oeste 0 -- -- 65
2018-04-26 01:00:00 14.4 3 Oeste 8 Norte 0 -- -- 61
2018-04-26 00:00:00 14.9 0 Calma 5 Oeste 0 -- -- 60
2018-04-25 23:00:00 16.1 3 Sudeste 10 Sudeste 0 -- -- 54
2018-04-25 22:00:00 17.7 8 Este 16 Sudeste 0 -- -- 48
2018-04-25 21:00:00 18.5 3 Este 17 Sudeste 0 -- -- 45
2018-04-25 20:00:00 20 8 Sudeste 16 Sudeste 0 -- -- 40
2018-04-25 19:00:00 20.1 10 Sudeste 27 Sudeste 0 -- -- 41
2018-04-25 18:00:00 20.7 18 Sudeste 38 Sudeste 0 -- -- 40
2018-04-25 17:00:00 20.5 20 Sudeste 37 Este 0 -- -- 42
2018-04-25 16:00:00 21.6 23 Sudeste 42 Sudeste 0 -- -- 42
2018-04-25 15:00:00 24.7 23 Sudeste 41 Sudeste 0 -- -- 30
2018-04-25 14:00:00 22.9 16 Sudeste 35 Sudeste 0 -- -- 37
2018-04-25 13:00:00 22.3 19 Sudeste 33 Sudeste 0 -- -- 37
2018-04-25 12:00:00 21.9 10 Sur 22 Sur 0 -- -- 37
2018-04-25 11:00:00 21.1 5 Sudeste 16 Este 0 -- -- 40
2018-04-25 10:00:00 18.6 2 Sudoeste 8 Oeste 0 -- -- 45
2018-04-25 09:00:00 15.5 0 Calma 7 Oeste 0 -- -- 53
2018-04-25 08:00:00 10.3 0 Calma 7 Oeste 0 -- -- 70
2018-04-25 07:00:00 9.4 0 Calma 10 Oeste 0 -- -- 71
2018-04-25 06:00:00 9.7 0 Calma 8 Oeste 0 -- -- 69
2018-04-25 05:00:00 10.1 6 Oeste 10 Oeste 0 -- -- 71
2018-04-25 04:00:00 10.1 4 Norte 7 Norte 0 -- -- 69
2018-04-25 03:00:00 10.6 0 Calma 10 Oeste 0 -- -- 68
2018-04-25 02:00:00 11.1 3 Nordeste 7 Norte 0 -- -- 65
2018-04-25 01:00:00 11.8 3 Nordeste 8 Nordeste 0 -- -- 63
2018-04-25 00:00:00 12.5 0 Calma 8 Norte 0 -- -- 62
2018-04-24 23:00:00 14.4 3 Noroeste 12 Nordeste 0 -- -- 57
2018-04-24 22:00:00 15.4 4 Nordeste 12 Este 0 -- -- 53
2018-04-24 21:00:00 17.2 8 Este 21 Sudeste 0 -- -- 48
2018-04-24 20:00:00 19.1 13 Sudeste 24 Sudeste 0 -- -- 47
2018-04-24 19:00:00 20.2 15 Sudeste 29 Sudeste 0 -- -- 46
2018-04-24 18:00:00 21.6 15 Sudeste 32 Sudeste 0 -- -- 42
2018-04-24 17:00:00 22.8 18 Sudeste 30 Sudeste 0 -- -- 40
2018-04-24 16:00:00 22.8 14 Sudeste 35 Sur 0 -- -- 42
2018-04-24 15:00:00 22.2 19 Sudeste 34 Sudeste 0 -- -- 43
2018-04-24 14:00:00 21.2 20 Sudeste 33 Sudeste 0 -- -- 46
2018-04-24 13:00:00 21.3 16 Sudeste 33 Sudeste 0 -- -- 46
2018-04-24 12:00:00 18.5 7 Sudeste 13 Sudeste 0 -- -- 51
2018-04-24 11:00:00 18.4 3 Sudeste 8 Sur 0 -- -- 50
2018-04-24 10:00:00 14.4 0 Calma 7 Sudoeste 0 -- -- 66
2018-04-24 09:00:00 13.6 3 Nordeste 8 Oeste 0 -- -- 69
2018-04-24 08:00:00 11.1 4 Oeste 9 Oeste 0 -- -- 73
2018-04-24 07:00:00 10.7 2 Nordeste 7 Oeste 0 -- -- 75
2018-04-24 06:00:00 10.4 4 Noroeste 10 Oeste 0 -- -- 72
2018-04-24 05:00:00 10.3 2 Noroeste 7 Norte 0 -- -- 74
2018-04-24 04:00:00 10.9 0 Calma 8 Nordeste 0 -- -- 70
2018-04-24 03:00:00 10.6 3 Norte 6 Norte 0 -- -- 71
2018-04-24 02:00:00 11.6 0 Calma 8 Norte 0 -- -- 65
2018-04-24 01:00:00 11.9 0 Calma 8 Norte 0 -- -- 64
2018-04-24 00:00:00 13 3 Norte 8 Nordeste 0 -- -- 62